createdAt,value
2017-09-15T04:36:18.778Z,0
2017-09-15T04:37:32.463Z,0
2017-09-15T04:38:46.275Z,0
2017-09-15T04:40:00.691Z,0
2017-09-15T04:41:26.081Z,0
2017-09-15T04:42:51.809Z,0
2017-09-15T04:44:07.477Z,0
2017-09-15T04:45:21.073Z,0
2017-09-15T04:46:35.594Z,0
2017-09-15T04:47:49.234Z,0
2017-09-15T04:49:26.217Z,0
2017-09-15T04:50:40.347Z,0
2017-09-15T04:51:53.982Z,0
2017-09-15T04:53:08.282Z,0
2017-09-15T04:54:22.058Z,0
2017-09-15T04:55:37.652Z,0
2017-09-15T04:56:51.321Z,0
2017-09-15T04:58:05.106Z,0
2017-09-15T04:59:19.243Z,5
2017-09-15T05:00:47.557Z,5
2017-09-15T05:02:01.124Z,5
2017-09-15T05:03:15.233Z,5
2017-09-15T05:04:29.162Z,5
2017-09-15T05:05:43.433Z,5
2017-09-15T05:06:57.045Z,5
2017-09-15T05:08:57.147Z,10
2017-09-15T05:10:10.915Z,10
2017-09-15T05:11:25.641Z,10
2017-09-15T05:12:39.751Z,10
2017-09-15T05:13:53.957Z,10
2017-09-15T05:15:08.184Z,10
2017-09-15T05:16:22.050Z,10
2017-09-15T05:18:15.691Z,15
2017-09-15T05:19:29.704Z,15
2017-09-15T05:20:43.267Z,15
2017-09-15T05:21:57.321Z,15
2017-09-15T05:23:11.427Z,20
2017-09-15T05:24:25.958Z,20
2017-09-15T05:25:39.519Z,20
2017-09-15T05:26:56.377Z,25
2017-09-15T05:28:10.528Z,25
2017-09-15T05:29:45.333Z,25
2017-09-15T05:30:59.089Z,25
2017-09-15T05:32:12.735Z,25
2017-09-15T05:33:27.051Z,30
2017-09-15T05:34:40.622Z,30
2017-09-15T05:35:54.763Z,35
2017-09-15T05:37:08.847Z,35
2017-09-15T05:38:22.704Z,35
2017-09-15T05:39:36.334Z,35
2017-09-15T05:41:09.997Z,40
2017-09-15T05:42:23.882Z,40
2017-09-15T05:43:37.642Z,45
2017-09-15T05:44:52.107Z,45
2017-09-15T05:46:05.969Z,50
2017-09-15T05:47:20.057Z,50
2017-09-15T05:48:34.158Z,45
2017-09-15T05:49:48.684Z,50
2017-09-15T05:51:02.480Z,50
2017-09-15T05:52:16.813Z,50
2017-09-15T05:53:30.934Z,60
2017-09-15T05:54:48.074Z,60
2017-09-15T05:56:02.059Z,60
2017-09-15T05:57:33.596Z,60
2017-09-15T05:59:06.850Z,55
2017-09-15T06:00:52.739Z,50
2017-09-15T06:02:07.384Z,45
2017-09-15T06:03:21.443Z,40
2017-09-15T06:04:49.798Z,40
2017-09-15T06:06:03.646Z,40
2017-09-15T06:07:17.601Z,40
2017-09-15T06:08:31.414Z,40
2017-09-15T06:09:57.035Z,40
2017-09-15T06:11:13.081Z,45
2017-09-15T06:12:27.246Z,50
2017-09-15T06:13:41.537Z,55
2017-09-15T06:15:47.524Z,60
2017-09-15T06:17:01.375Z,60
2017-09-15T06:18:15.023Z,60
2017-09-15T06:19:28.857Z,60
2017-09-15T06:20:42.432Z,60
2017-09-15T06:21:56.577Z,55
2017-09-15T06:23:10.926Z,55
2017-09-15T06:24:25.293Z,55
2017-09-15T06:25:38.854Z,55
2017-09-15T06:26:53.142Z,60
2017-09-15T06:28:07.500Z,60
2017-09-15T06:29:21.503Z,60
2017-09-15T06:30:36.371Z,60
2017-09-15T06:32:17.772Z,55
2017-09-15T06:33:31.578Z,55
2017-09-15T06:34:45.427Z,55
2017-09-15T06:35:59.295Z,55
2017-09-15T06:37:13.323Z,55
2017-09-15T06:38:27.974Z,55
2017-09-15T06:39:41.813Z,55
2017-09-15T06:40:55.624Z,60
2017-09-15T06:42:09.438Z,65
2017-09-15T06:43:23.245Z,65
2017-09-15T06:44:37.673Z,75
2017-09-15T06:45:52.053Z,80
2017-09-15T06:47:08.368Z,85
2017-09-15T06:48:40.405Z,85
2017-09-15T06:49:54.212Z,90
2017-09-15T06:51:07.925Z,95
2017-09-15T06:52:22.392Z,95
2017-09-15T06:53:36.046Z,100
2017-09-15T06:54:50.486Z,100
2017-09-15T06:56:04.201Z,105
2017-09-15T06:57:18.067Z,105
2017-09-15T06:58:31.647Z,100
2017-09-15T06:59:48.206Z,100
2017-09-15T07:01:02.344Z,100
2017-09-15T07:02:30.689Z,95
2017-09-15T07:03:44.602Z,90
2017-09-15T07:04:59.071Z,90
2017-09-15T07:06:12.977Z,90
2017-09-15T07:07:26.784Z,85
2017-09-15T07:08:42.198Z,85
2017-09-15T07:09:56.590Z,95
2017-09-15T07:11:11.264Z,110
2017-09-15T07:12:54.618Z,125
2017-09-15T07:14:08.319Z,120
2017-09-15T07:15:23.145Z,110
2017-09-15T07:16:38.956Z,100
2017-09-15T07:17:53.910Z,105
2017-09-15T07:19:34.192Z,105
2017-09-15T07:20:48.032Z,110
2017-09-15T07:22:04.473Z,110
2017-09-15T07:23:18.263Z,115
2017-09-15T07:24:31.943Z,115
2017-09-15T07:25:46.173Z,120
2017-09-15T07:26:59.786Z,125
2017-09-15T07:28:45.121Z,130
2017-09-15T07:29:59.285Z,135
2017-09-15T07:31:14.070Z,135
2017-09-15T07:32:28.203Z,135
2017-09-15T07:33:42.107Z,135
2017-09-15T07:34:56.226Z,135
2017-09-15T07:36:10.590Z,140
2017-09-15T07:37:24.624Z,140
2017-09-15T07:38:38.264Z,135
2017-09-15T07:39:52.704Z,135
2017-09-15T07:41:06.665Z,130
2017-09-15T07:43:05.358Z,130
2017-09-15T07:44:20.976Z,135
2017-09-15T07:45:48.344Z,135
2017-09-15T07:47:44.345Z,140
2017-09-15T07:49:29.032Z,145
2017-09-15T07:50:54.969Z,150
2017-09-15T07:52:19.420Z,160
2017-09-15T07:53:44.832Z,160
2017-09-15T07:55:05.862Z,165
2017-09-15T07:56:57.471Z,165
2017-09-15T07:58:31.548Z,165
2017-09-15T07:59:58.603Z,165
2017-09-15T08:01:22.736Z,165
2017-09-15T08:02:47.042Z,170
2017-09-15T08:04:09.736Z,175
2017-09-15T08:05:54.988Z,175
2017-09-15T08:07:15.140Z,185
2017-09-15T08:08:38.403Z,195
2017-09-15T08:10:02.894Z,200
2017-09-15T08:11:33.270Z,195
2017-09-15T08:12:59.585Z,195
2017-09-15T08:14:25.094Z,190
2017-09-15T08:15:50.843Z,185
2017-09-15T08:17:17.841Z,185
2017-09-15T08:18:55.593Z,175
2017-09-15T08:21:06.145Z,170
2017-09-15T08:22:59.064Z,165
2017-09-15T08:24:24.793Z,160
2017-09-15T08:25:49.146Z,165
2017-09-15T08:27:39.177Z,175
2017-09-15T08:29:16.902Z,190
2017-09-15T08:31:06.167Z,190
2017-09-15T08:32:44.098Z,190
2017-09-15T08:34:06.010Z,190
2017-09-15T08:35:32.490Z,190
2017-09-15T08:36:57.998Z,190
2017-09-15T08:38:20.974Z,190
2017-09-15T08:40:13.646Z,185
2017-09-15T08:42:02.247Z,185
2017-09-15T08:43:43.865Z,175
2017-09-15T08:45:11.183Z,175
2017-09-15T08:46:35.225Z,175
2017-09-15T08:47:56.304Z,170
2017-09-15T08:49:30.787Z,160
2017-09-15T08:50:54.522Z,155
2017-09-15T08:52:19.150Z,150
2017-09-15T08:54:20.331Z,150
2017-09-15T08:55:56.661Z,155
2017-09-15T08:57:23.505Z,160
2017-09-15T08:58:43.784Z,160
2017-09-15T09:00:06.490Z,165
2017-09-15T09:01:31.885Z,170
2017-09-15T09:02:57.065Z,175
2017-09-15T09:04:20.453Z,185
2017-09-15T09:05:51.709Z,195
2017-09-15T09:07:13.071Z,200
2017-09-15T09:08:34.911Z,210
2017-09-15T09:10:07.171Z,215
2017-09-15T09:11:30.029Z,220
2017-09-15T09:13:55.619Z,240
2017-09-15T09:15:18.632Z,245
2017-09-15T09:16:43.349Z,255
2017-09-15T09:17:59.839Z,255
2017-09-15T09:19:13.597Z,260
2017-09-15T09:20:27.823Z,270
2017-09-15T09:21:41.631Z,270
2017-09-15T09:22:55.451Z,265
2017-09-15T09:24:09.641Z,255
2017-09-15T09:25:23.379Z,240
2017-09-15T09:26:37.384Z,230
2017-09-15T09:27:51.146Z,225
2017-09-15T09:29:05.092Z,220
2017-09-15T09:30:19.087Z,215
2017-09-15T09:31:33.216Z,215
2017-09-15T09:32:48.264Z,220
2017-09-15T09:34:02.369Z,225
2017-09-15T09:35:16.075Z,235
2017-09-15T09:36:29.923Z,240
2017-09-15T09:37:43.692Z,240
2017-09-15T09:38:57.910Z,235
2017-09-15T09:40:11.779Z,225
2017-09-15T09:41:25.746Z,220
2017-09-15T09:42:39.455Z,210
2017-09-15T09:43:53.141Z,205
2017-09-15T09:45:07.327Z,200
2017-09-15T09:46:21.425Z,190
2017-09-15T09:47:35.308Z,185
2017-09-15T09:48:48.991Z,185
2017-09-15T09:50:02.786Z,195
2017-09-15T09:51:17.199Z,205
2017-09-15T09:52:31.503Z,220
2017-09-15T09:53:45.575Z,225
2017-09-15T09:54:59.506Z,220
2017-09-15T09:56:13.361Z,220
2017-09-15T09:57:27.677Z,220
2017-09-15T09:58:41.407Z,215
2017-09-15T09:59:55.005Z,210
2017-09-15T10:01:09.206Z,195
2017-09-15T10:02:23.145Z,195
2017-09-15T10:03:37.224Z,195
2017-09-15T10:04:53.202Z,200
2017-09-15T10:06:07.675Z,200
2017-09-15T10:07:21.713Z,210
2017-09-15T10:08:35.553Z,195
2017-09-15T10:09:49.891Z,210
2017-09-15T10:11:04.102Z,205
2017-09-15T10:12:17.873Z,190
2017-09-15T10:13:31.985Z,185
2017-09-15T10:14:46.153Z,180
2017-09-15T10:16:00.643Z,185
2017-09-15T10:17:22.923Z,170
2017-09-15T10:18:38.181Z,175
2017-09-15T10:19:51.806Z,190
2017-09-15T10:21:08.982Z,215
2017-09-15T10:22:23.750Z,220
2017-09-15T10:23:37.464Z,200
2017-09-15T10:24:51.542Z,180
2017-09-15T10:26:07.945Z,170
2017-09-15T10:27:21.977Z,175
2017-09-15T10:28:37.308Z,195
2017-09-15T10:29:51.706Z,215
2017-09-15T10:31:05.612Z,230
2017-09-15T10:32:19.835Z,240
2017-09-15T10:33:33.577Z,245
2017-09-15T10:34:47.474Z,245
2017-09-15T10:36:01.874Z,215
2017-09-15T10:37:15.663Z,215
2017-09-15T10:38:29.277Z,215
2017-09-15T10:39:43.007Z,215
2017-09-15T10:40:57.217Z,225
2017-09-15T10:42:10.799Z,240
2017-09-15T10:43:24.414Z,265
2017-09-15T10:44:38.078Z,280
2017-09-15T10:45:51.924Z,290
2017-09-15T10:47:05.681Z,300
2017-09-15T10:48:19.373Z,315
2017-09-15T10:49:32.971Z,315
2017-09-15T10:50:46.835Z,320
2017-09-15T10:52:00.484Z,335
2017-09-15T10:53:14.710Z,340
2017-09-15T10:54:28.400Z,325
2017-09-15T10:55:42.311Z,315
2017-09-15T10:56:56.008Z,305
2017-09-15T10:58:09.672Z,295
2017-09-15T10:59:23.311Z,270
2017-09-15T11:00:37.115Z,250
2017-09-15T11:01:50.703Z,240
2017-09-15T11:03:04.462Z,225
2017-09-15T11:04:18.079Z,190
2017-09-15T11:05:31.793Z,185
2017-09-15T11:06:45.581Z,195
2017-09-15T11:07:59.954Z,195
2017-09-15T11:09:33.443Z,225
2017-09-15T11:10:47.188Z,250
2017-09-15T11:12:01.888Z,250
2017-09-15T11:13:15.608Z,245
2017-09-15T11:14:29.817Z,240
2017-09-15T11:15:43.897Z,230
2017-09-15T11:16:57.584Z,225
2017-09-15T11:18:12.710Z,230
2017-09-15T11:19:26.500Z,230
2017-09-15T11:20:40.230Z,240
2017-09-15T11:21:53.838Z,240
2017-09-15T11:23:08.158Z,235
2017-09-15T11:24:22.268Z,235
2017-09-15T11:25:35.917Z,245
2017-09-15T11:26:49.768Z,240
2017-09-15T11:28:04.298Z,240
2017-09-15T11:29:18.515Z,245
2017-09-15T11:30:32.149Z,250
2017-09-15T11:31:45.737Z,250
2017-09-15T11:32:59.530Z,255
2017-09-15T11:34:13.687Z,245
2017-09-15T11:35:27.878Z,245
2017-09-15T11:36:42.657Z,240
2017-09-15T11:37:56.250Z,240
2017-09-15T11:39:09.981Z,225
2017-09-15T11:40:23.699Z,220
2017-09-15T11:41:37.572Z,225
2017-09-15T11:42:51.189Z,215
2017-09-15T11:44:05.170Z,200
2017-09-15T11:45:19.135Z,200
2017-09-15T11:46:32.778Z,185
2017-09-15T11:47:46.650Z,170
2017-09-15T11:49:00.682Z,160
2017-09-15T11:50:14.436Z,150
2017-09-15T11:51:28.230Z,150
2017-09-15T11:52:41.869Z,155
2017-09-15T11:53:56.679Z,165
2017-09-15T11:55:10.984Z,180
2017-09-15T11:56:25.167Z,195
2017-09-15T11:57:39.229Z,195
2017-09-15T11:58:53.113Z,190
2017-09-15T12:00:07.053Z,185
2017-09-15T12:01:20.805Z,175
2017-09-15T12:02:34.475Z,170
2017-09-15T12:03:48.443Z,175
2017-09-15T12:05:02.794Z,190
2017-09-15T12:06:18.815Z,215
2017-09-15T12:07:32.769Z,240
2017-09-15T12:08:46.505Z,265
2017-09-15T12:10:00.327Z,280
2017-09-15T12:11:14.632Z,295
2017-09-15T12:12:29.383Z,300
2017-09-15T12:13:43.133Z,300
2017-09-15T12:14:57.366Z,300
2017-09-15T12:16:11.058Z,290
2017-09-15T12:17:25.727Z,280
2017-09-15T12:18:40.349Z,275
2017-09-15T12:19:54.039Z,265
2017-09-15T12:21:08.109Z,260
2017-09-15T12:22:22.987Z,255
2017-09-15T12:23:37.011Z,255
2017-09-15T12:24:51.345Z,240
2017-09-15T12:26:04.971Z,220
2017-09-15T12:27:18.745Z,205
2017-09-15T12:28:34.017Z,200
2017-09-15T12:29:47.649Z,185
2017-09-15T12:31:02.176Z,150
2017-09-15T12:32:16.175Z,110
2017-09-15T12:34:02.541Z,45
2017-09-15T12:35:16.213Z,30
2017-09-15T12:36:31.558Z,30
2017-09-15T12:37:45.468Z,40
2017-09-15T12:38:59.681Z,45
2017-09-15T12:40:13.931Z,50
2017-09-15T12:41:28.556Z,55
2017-09-15T12:42:43.117Z,70
2017-09-15T12:43:57.035Z,90
2017-09-15T12:45:10.932Z,110
2017-09-15T12:46:24.636Z,130
2017-09-15T12:47:38.975Z,160
2017-09-15T12:48:53.016Z,175
2017-09-15T12:50:06.688Z,170
2017-09-15T12:51:20.514Z,165
2017-09-15T12:52:34.184Z,175
2017-09-15T12:53:48.149Z,190
2017-09-15T12:55:02.041Z,205
2017-09-15T12:56:15.647Z,220
2017-09-15T12:57:29.247Z,225
2017-09-15T12:58:43.474Z,230
2017-09-15T12:59:57.229Z,235
2017-09-15T13:01:11.215Z,245
2017-09-15T13:02:24.858Z,260
2017-09-15T13:03:38.424Z,265
2017-09-15T13:04:52.355Z,270
2017-09-15T13:06:06.296Z,275
2017-09-15T13:07:19.928Z,275
2017-09-15T13:08:34.407Z,270
2017-09-15T13:09:48.335Z,270
2017-09-15T13:11:02.231Z,270
2017-09-15T13:12:16.294Z,270
2017-09-15T13:13:29.888Z,260
2017-09-15T13:14:43.600Z,260
2017-09-15T13:15:58.922Z,260
2017-09-15T13:17:12.999Z,255
2017-09-15T13:18:27.693Z,250
2017-09-15T13:19:41.421Z,245
2017-09-15T13:20:55.235Z,240
2017-09-15T13:22:09.535Z,235
2017-09-15T13:23:23.170Z,225
2017-09-15T13:24:36.873Z,215
2017-09-15T13:25:50.538Z,205
2017-09-15T13:27:04.230Z,200
2017-09-15T13:28:18.079Z,195
2017-09-15T13:29:31.693Z,200
2017-09-15T13:30:45.653Z,205
2017-09-15T13:31:59.501Z,210
2017-09-15T13:33:13.135Z,210
2017-09-15T13:34:26.729Z,210
2017-09-15T13:35:40.348Z,210
2017-09-15T13:36:54.070Z,210
2017-09-15T13:38:07.946Z,215
2017-09-15T13:39:21.731Z,220
2017-09-15T13:40:36.134Z,225
2017-09-15T13:41:49.852Z,225
2017-09-15T13:43:03.684Z,225
2017-09-15T13:44:18.164Z,220
2017-09-15T13:45:32.560Z,210
2017-09-15T13:46:46.759Z,205
2017-09-15T13:48:00.813Z,200
2017-09-15T13:49:14.506Z,190
2017-09-15T13:50:28.145Z,185
2017-09-15T13:51:42.164Z,185
2017-09-15T13:52:56.544Z,185
2017-09-15T13:54:10.178Z,185
2017-09-15T13:55:25.097Z,170
2017-09-15T13:56:39.119Z,170
2017-09-15T13:57:53.330Z,160
2017-09-15T13:59:06.920Z,155
2017-09-15T14:00:24.353Z,150
2017-09-15T14:01:38.993Z,150
2017-09-15T14:02:52.561Z,150
2017-09-15T14:04:06.464Z,145
2017-09-15T14:05:20.134Z,140
2017-09-15T14:06:33.835Z,140
2017-09-15T14:07:47.782Z,140
2017-09-15T14:09:01.463Z,140
2017-09-15T14:10:15.034Z,140
2017-09-15T14:11:28.981Z,145
2017-09-15T14:12:43.166Z,145
2017-09-15T14:13:56.902Z,145
2017-09-15T14:15:11.185Z,145
2017-09-15T14:16:24.777Z,140
2017-09-15T14:17:38.353Z,140
2017-09-15T14:18:52.050Z,135
2017-09-15T14:20:05.741Z,135
2017-09-15T14:21:19.387Z,130
2017-09-15T14:22:33.043Z,125
2017-09-15T14:23:47.063Z,120
2017-09-15T14:25:00.909Z,115
2017-09-15T14:26:15.061Z,105
2017-09-15T14:27:29.050Z,100
2017-09-15T14:28:43.096Z,100
2017-09-15T14:29:56.804Z,105
2017-09-15T14:31:11.642Z,95
2017-09-15T14:32:25.299Z,95
2017-09-15T14:33:40.196Z,95
2017-09-15T14:34:54.129Z,105
2017-09-15T14:36:07.827Z,110
2017-09-15T14:37:21.725Z,115
2017-09-15T14:38:35.406Z,115
2017-09-15T14:39:49.470Z,120
2017-09-15T14:41:03.385Z,125
2017-09-15T14:42:17.311Z,130
2017-09-15T14:43:31.609Z,130
2017-09-15T14:44:46.083Z,130
2017-09-15T14:45:59.876Z,140
2017-09-15T14:47:13.492Z,155
2017-09-15T14:48:27.099Z,150
2017-09-15T14:49:41.164Z,140
2017-09-15T14:50:55.420Z,130
2017-09-15T14:52:09.620Z,115
2017-09-15T14:53:23.246Z,105
2017-09-15T14:54:37.467Z,105
2017-09-15T14:55:51.209Z,110
2017-09-15T14:57:05.626Z,115
2017-09-15T14:58:20.454Z,120
2017-09-15T14:59:34.491Z,110
2017-09-15T15:00:48.207Z,105
2017-09-15T15:02:02.139Z,105
2017-09-15T15:03:16.299Z,115
2017-09-15T15:04:30.517Z,125
2017-09-15T15:05:44.628Z,125
2017-09-15T15:06:58.270Z,120
2017-09-15T15:08:11.958Z,120
2017-09-15T15:09:25.667Z,115
2017-09-15T15:10:39.778Z,125
2017-09-15T15:11:53.977Z,115
2017-09-15T15:13:08.017Z,110
2017-09-15T15:14:21.623Z,120
2017-09-15T15:15:35.860Z,120
2017-09-15T15:16:49.487Z,110
2017-09-15T15:18:05.020Z,110
2017-09-15T15:19:19.562Z,110
2017-09-15T15:20:34.868Z,110
2017-09-15T15:21:49.184Z,105
2017-09-15T15:23:03.418Z,95
2017-09-15T15:24:17.585Z,100
2017-09-15T15:25:31.616Z,100
2017-09-15T15:26:46.088Z,110
2017-09-15T15:27:59.703Z,120
2017-09-15T15:29:14.642Z,125
2017-09-15T15:30:28.670Z,120
2017-09-15T15:31:42.304Z,110
2017-09-15T15:32:55.924Z,100
2017-09-15T15:34:09.535Z,100
2017-09-15T15:35:23.524Z,100
2017-09-15T15:36:37.722Z,100
2017-09-15T15:37:51.982Z,100
2017-09-15T15:39:05.735Z,95
2017-09-15T15:40:40.234Z,90
2017-09-15T15:41:54.456Z,85
2017-09-15T15:43:08.131Z,80
2017-09-15T15:44:22.168Z,75
2017-09-15T15:45:35.817Z,75
2017-09-15T15:46:50.571Z,75
2017-09-15T15:48:04.353Z,75
2017-09-15T15:49:17.995Z,75
2017-09-15T15:50:31.713Z,80
2017-09-15T15:51:46.085Z,90
2017-09-15T15:53:01.004Z,90
2017-09-15T15:54:15.441Z,90
2017-09-15T15:55:30.060Z,85
2017-09-15T15:56:43.809Z,80
2017-09-15T15:57:57.550Z,75
2017-09-15T15:59:11.818Z,80
2017-09-15T16:00:25.431Z,80
2017-09-15T16:01:39.103Z,80
2017-09-15T16:02:52.908Z,75
2017-09-15T16:04:06.647Z,75
2017-09-15T16:05:20.898Z,70
2017-09-15T16:06:35.422Z,65
2017-09-15T16:07:49.271Z,60
2017-09-15T16:09:02.895Z,60
2017-09-15T16:10:16.901Z,60
2017-09-15T16:11:31.184Z,55
2017-09-15T16:12:44.755Z,55
2017-09-15T16:13:58.382Z,55
2017-09-15T16:15:12.263Z,50
2017-09-15T16:16:26.900Z,50
2017-09-15T16:17:41.009Z,50
2017-09-15T16:18:56.167Z,50
2017-09-15T16:20:10.308Z,50
2017-09-15T16:21:24.505Z,45
2017-09-15T16:22:38.570Z,45
2017-09-15T16:23:52.657Z,40
2017-09-15T16:25:07.553Z,35
2017-09-15T16:26:21.144Z,35
2017-09-15T16:27:34.733Z,30
2017-09-15T16:28:48.375Z,35
2017-09-15T16:30:02.363Z,30
2017-09-15T16:31:16.400Z,30
2017-09-15T16:32:32.088Z,35
2017-09-15T16:33:46.211Z,40
2017-09-15T16:35:01.697Z,50
2017-09-15T16:36:16.176Z,65
2017-09-15T16:37:31.677Z,60
2017-09-15T16:38:45.278Z,55
2017-09-15T16:39:59.807Z,50
2017-09-15T16:41:14.714Z,50
2017-09-15T16:42:29.520Z,50
2017-09-15T16:43:43.308Z,45
2017-09-15T16:44:56.951Z,45
2017-09-15T16:46:10.670Z,45
2017-09-15T16:47:25.129Z,45
2017-09-15T16:48:39.396Z,45
2017-09-15T16:49:53.102Z,45
2017-09-15T16:51:07.341Z,45
2017-09-15T16:52:21.879Z,45
2017-09-15T16:53:35.555Z,45
2017-09-15T16:54:51.959Z,40
2017-09-15T16:56:07.980Z,40
2017-09-15T16:57:22.773Z,35
2017-09-15T16:58:36.910Z,35
2017-09-15T16:59:50.924Z,35
2017-09-15T17:01:04.939Z,30
2017-09-15T17:02:18.655Z,30
2017-09-15T17:03:33.076Z,30
2017-09-15T17:04:46.775Z,25
2017-09-15T17:06:00.580Z,25
2017-09-15T17:07:14.626Z,25
2017-09-15T17:08:28.588Z,25
2017-09-15T17:09:42.968Z,20
2017-09-15T17:10:56.978Z,20
2017-09-15T17:12:10.972Z,20
2017-09-15T17:13:24.692Z,20
2017-09-15T17:14:38.389Z,20
2017-09-15T17:15:52.383Z,15
2017-09-15T17:17:06.855Z,15
2017-09-15T17:18:21.484Z,15
2017-09-15T17:19:35.447Z,15
2017-09-15T17:20:49.422Z,15
2017-09-15T17:22:03.180Z,10
2017-09-15T17:23:16.804Z,10
2017-09-15T17:24:30.986Z,10
2017-09-15T17:25:45.083Z,10
2017-09-15T17:26:59.080Z,10
2017-09-15T17:28:12.715Z,10
2017-09-15T17:29:33.591Z,5
2017-09-15T17:30:58.420Z,5
2017-09-15T17:32:26.396Z,5
2017-09-15T17:33:51.485Z,5
2017-09-15T17:35:11.417Z,5
2017-09-15T17:36:25.818Z,5
2017-09-15T17:37:39.482Z,5
2017-09-15T17:38:53.459Z,0
2017-09-15T17:40:07.651Z,0
2017-09-15T17:41:21.456Z,0
2017-09-15T17:42:35.233Z,0
2017-09-15T17:43:49.097Z,0
2017-09-15T17:45:03.693Z,0
2017-09-15T17:46:17.665Z,0
2017-09-15T17:47:31.702Z,0
2017-09-15T17:48:45.317Z,0
2017-09-15T17:49:59.263Z,0
2017-09-15T17:51:13.382Z,0
2017-09-15T17:52:27.180Z,0
2017-09-15T17:53:41.158Z,0
2017-09-15T17:54:54.766Z,0
2017-09-15T17:56:09.491Z,0
2017-09-15T17:57:23.936Z,0
2017-09-15T17:58:38.401Z,0
2017-09-15T17:59:52.349Z,0
2017-09-15T18:01:05.938Z,0
2017-09-15T18:02:19.992Z,0
2017-09-15T18:03:33.769Z,0
2017-09-15T18:04:47.766Z,0
2017-09-15T18:06:01.434Z,0
2017-09-15T18:07:15.448Z,0
2017-09-15T18:08:29.483Z,0
2017-09-15T18:09:43.716Z,0
2017-09-15T18:10:57.303Z,0
2017-09-15T18:12:11.417Z,0
2017-09-15T18:13:26.379Z,0
2017-09-15T18:14:41.643Z,0
2017-09-15T18:15:55.589Z,0
2017-09-15T18:17:10.599Z,0
2017-09-15T18:18:24.274Z,0
2017-09-15T18:19:37.905Z,0
2017-09-15T18:20:52.714Z,0
2017-09-15T18:22:06.907Z,0
2017-09-15T18:23:21.647Z,0
2017-09-15T18:24:35.933Z,0
2017-09-15T18:25:49.916Z,0
2017-09-15T18:27:04.790Z,0
2017-09-15T18:28:19.099Z,0
2017-09-15T18:29:33.344Z,0
2017-09-15T18:30:47.855Z,0
2017-09-15T18:32:02.621Z,0
2017-09-15T18:33:16.775Z,0
2017-09-15T18:34:32.290Z,0
2017-09-15T18:35:46.047Z,0
2017-09-15T18:37:01.104Z,0
2017-09-15T18:38:15.472Z,0
2017-09-15T18:39:30.374Z,0
2017-09-15T18:40:44.017Z,0
2017-09-15T18:41:57.903Z,0
2017-09-15T18:43:11.638Z,0
2017-09-15T18:44:25.383Z,0
2017-09-15T18:45:40.056Z,0
2017-09-15T18:46:53.723Z,0
2017-09-15T18:48:07.449Z,0
2017-09-15T18:49:21.490Z,0
2017-09-15T18:50:35.142Z,0
2017-09-15T18:51:49.421Z,0
2017-09-15T18:53:03.212Z,0
2017-09-15T18:54:17.861Z,0
2017-09-15T18:55:31.911Z,0
2017-09-15T18:56:45.668Z,0
2017-09-15T18:57:59.529Z,0
2017-09-15T18:59:13.301Z,0
2017-09-15T19:00:26.941Z,0
2017-09-15T19:01:40.945Z,0
2017-09-15T19:02:54.690Z,0
2017-09-15T19:04:10.930Z,0
2017-09-15T19:05:27.019Z,0
2017-09-15T19:06:41.082Z,0
2017-09-15T19:07:55.191Z,0
2017-09-15T19:09:08.877Z,0
2017-09-15T19:10:22.943Z,0
2017-09-15T19:11:36.829Z,0
2017-09-15T19:12:51.240Z,0
2017-09-15T19:14:06.619Z,0
2017-09-15T19:15:20.626Z,0
2017-09-15T19:16:34.783Z,0
2017-09-15T19:17:48.587Z,0
2017-09-15T19:19:02.359Z,0
2017-09-15T19:20:18.618Z,0
2017-09-15T19:21:34.054Z,0
2017-09-15T19:22:48.653Z,0
2017-09-15T19:24:02.778Z,0
2017-09-15T19:25:16.424Z,0
2017-09-15T19:26:30.035Z,0
2017-09-15T19:27:43.831Z,0
2017-09-15T19:28:58.461Z,0
2017-09-15T19:30:12.296Z,0
2017-09-15T19:31:26.460Z,0
2017-09-15T19:32:40.374Z,0
2017-09-15T19:33:54.029Z,0
2017-09-15T19:35:08.236Z,0
2017-09-15T19:36:22.547Z,0
2017-09-15T19:37:36.798Z,0
2017-09-15T19:38:50.434Z,0
2017-09-15T19:40:04.251Z,0
2017-09-15T19:41:18.504Z,0
2017-09-15T19:42:32.599Z,0
2017-09-15T19:43:48.437Z,0
2017-09-15T19:45:03.155Z,0
2017-09-15T19:46:17.002Z,0
2017-09-15T19:47:32.847Z,0
2017-09-15T19:48:47.089Z,0
2017-09-15T19:50:01.607Z,0
2017-09-15T19:51:15.272Z,0
2017-09-15T19:52:29.325Z,0
2017-09-15T19:53:43.436Z,0
2017-09-15T19:54:57.384Z,0
2017-09-15T19:56:11.197Z,0
2017-09-15T19:57:24.804Z,0
2017-09-15T19:58:38.991Z,0
2017-09-15T19:59:52.915Z,0
2017-09-15T20:01:06.872Z,0
2017-09-15T20:02:20.585Z,0
2017-09-15T20:03:34.223Z,0
2017-09-15T20:05:02.524Z,0
2017-09-15T20:07:08.338Z,0
2017-09-15T20:09:07.026Z,0
2017-09-15T20:11:18.634Z,0
2017-09-15T20:13:17.550Z,0
2017-09-15T20:15:16.251Z,0
2017-09-15T20:16:29.932Z,0
2017-09-15T20:17:43.635Z,0
2017-09-15T20:18:57.702Z,0
2017-09-15T20:20:26.245Z,0
2017-09-15T20:21:40.194Z,0
2017-09-15T20:22:54.284Z,0
2017-09-15T20:24:08.409Z,0
2017-09-15T20:25:22.848Z,0
2017-09-15T20:26:36.459Z,0
2017-09-15T20:27:50.060Z,0
2017-09-15T20:29:03.907Z,0
2017-09-15T20:30:17.928Z,0
2017-09-15T20:31:35.277Z,0
2017-09-15T20:32:49.349Z,0
2017-09-15T20:34:02.961Z,0
2017-09-15T20:35:16.542Z,0
2017-09-15T20:36:30.313Z,0
2017-09-15T20:37:44.378Z,0
2017-09-15T20:38:58.403Z,0
2017-09-15T20:40:12.422Z,0
2017-09-15T20:41:26.710Z,0
2017-09-15T20:42:40.908Z,0
2017-09-15T20:43:54.806Z,0
2017-09-15T20:45:08.381Z,0
2017-09-15T20:46:22.182Z,0
2017-09-15T20:47:35.832Z,0
2017-09-15T20:48:49.901Z,0
2017-09-15T20:50:05.990Z,0
2017-09-15T20:51:19.685Z,0
2017-09-15T20:52:33.759Z,0
2017-09-15T20:53:47.929Z,0
2017-09-15T20:55:01.782Z,0
2017-09-15T20:56:15.871Z,0
2017-09-15T20:57:29.469Z,0
2017-09-15T20:58:43.189Z,0
2017-09-15T20:59:57.352Z,0
2017-09-15T21:01:11.218Z,0
2017-09-15T21:02:25.440Z,0
2017-09-15T21:03:40.046Z,0
2017-09-15T21:04:54.870Z,0
2017-09-15T21:06:08.568Z,0
2017-09-15T21:07:22.190Z,0
2017-09-15T21:08:36.846Z,0
2017-09-15T21:09:51.569Z,0
2017-09-15T21:11:05.154Z,0
2017-09-15T21:12:18.785Z,0
2017-09-15T21:13:32.576Z,0
2017-09-15T21:14:47.227Z,0
2017-09-15T21:16:00.886Z,0
2017-09-15T21:17:14.694Z,0
2017-09-15T21:18:29.159Z,0
2017-09-15T21:19:42.888Z,0
2017-09-15T21:20:56.850Z,0
2017-09-15T21:22:10.527Z,0
2017-09-15T21:23:24.120Z,0
2017-09-15T21:24:37.782Z,0
2017-09-15T21:25:51.454Z,0
2017-09-15T21:27:05.364Z,0
2017-09-15T21:28:19.284Z,0
2017-09-15T21:29:33.132Z,0
2017-09-15T21:30:46.852Z,0
2017-09-15T21:32:00.819Z,0
2017-09-15T21:33:14.871Z,0
2017-09-15T21:34:28.848Z,0
2017-09-15T21:35:42.463Z,0
2017-09-15T21:36:56.635Z,0
2017-09-15T21:38:10.442Z,0
2017-09-15T21:39:24.377Z,0
2017-09-15T21:40:38.313Z,0
2017-09-15T21:41:51.945Z,0
2017-09-15T21:43:05.587Z,0
2017-09-15T21:44:19.553Z,0
2017-09-15T21:45:33.507Z,0
2017-09-15T21:46:47.853Z,0
2017-09-15T21:48:02.053Z,0
2017-09-15T21:49:15.749Z,0
2017-09-15T21:50:30.841Z,0
2017-09-15T21:51:46.454Z,0
2017-09-15T21:53:01.216Z,0
2017-09-15T21:54:15.318Z,0
2017-09-15T21:55:30.116Z,0
2017-09-15T21:56:44.218Z,0
2017-09-15T21:57:58.321Z,0
2017-09-15T21:59:12.303Z,0
2017-09-15T22:00:26.241Z,0
2017-09-15T22:01:39.819Z,0
2017-09-15T22:02:53.388Z,0
2017-09-15T22:04:07.300Z,0
2017-09-15T22:05:20.926Z,0
2017-09-15T22:06:34.547Z,0
2017-09-15T22:07:48.247Z,0
2017-09-15T22:09:02.408Z,0
2017-09-15T22:10:16.294Z,0
2017-09-15T22:11:30.194Z,0
2017-09-15T22:12:46.842Z,0
2017-09-15T22:14:00.923Z,0
2017-09-15T22:15:15.296Z,0
2017-09-15T22:16:29.577Z,0
2017-09-15T22:17:43.279Z,0
2017-09-15T22:18:57.303Z,0
2017-09-15T22:20:10.918Z,0
2017-09-15T22:21:25.019Z,0
2017-09-15T22:22:40.261Z,0
2017-09-15T22:23:53.859Z,0
2017-09-15T22:25:07.694Z,0
2017-09-15T22:26:21.442Z,0
2017-09-15T22:27:35.657Z,0
2017-09-15T22:28:49.985Z,0
2017-09-15T22:30:03.732Z,0
2017-09-15T22:31:17.597Z,0
2017-09-15T22:32:31.699Z,0
2017-09-15T22:33:45.394Z,0
2017-09-15T22:34:59.595Z,0
2017-09-15T22:36:14.083Z,0
2017-09-15T22:37:27.892Z,0
2017-09-15T22:38:41.889Z,0
2017-09-15T22:39:55.908Z,0
2017-09-15T22:41:10.552Z,0